• Join FlightAware (Why Join?)
  • Login
  • US Flag 
11:27AM EDT


 

Airport Tracker/Info


-or-


 

Live Flight TrackerFlight Track Log ✈ DAL268 ✈ 10-Jun-2013 ✈ KJFK - LLBG / TLV

Flight Track Log - Related Links

Times and Time Zones

All times are in EDT time to prevent confusion due to time zone crossing. See the DAL268 flight status page for this flight to view local times or setup timezone preferences in your user account.

Time Position Orientation Groundspeed Altitude Reporting Facility
EDT Latitude Longitude Course Direction KTS MPH feet Rate Location/Type
01:00AM 40.6370 -73.7840 North  Level FlightAware
01:02AM 40.6370 -73.7830 90° East 2 2  Level FlightAware
01:04AM 40.6380 -73.7830 360° North 2 2  Level FlightAware
01:05AM 40.6370 -73.7830 180° South 2 2  Level FlightAware
01:07AM 40.6360 -73.7830 90° East 9 10  Level FlightAware
01:08AM 40.5000 -73.3693 90° East  Level FlightAware Approximate
01:09AM 40.6350 -73.7830 180° South 2 2  Level FlightAware
01:11AM 40.6350 -73.7840 123° Southeast 2 2  Level FlightAware
01:12AM 40.5124 -73.4081 123° Southeast  Level FlightAware Approximate
01:13AM 40.6340 -73.7840 180° South 2 2  Level FlightAware
01:15AM 40.5421 -73.4929 114° Southeast  Level FlightAware Approximate
01:15AM 40.6330 -73.7840 114° Southeast 16 18  Level FlightAware
01:15AM 40.6330 -73.7830 90° East 17 20  Level FlightAware
01:15AM 40.6320 -73.7830 180° South 21 24  Level FlightAware
01:16AM 40.6330 -73.7820 37° Northeast 14 16  Level FlightAware
01:17AM 40.6340 -73.7810 37° Northeast 22 25  Level FlightAware
01:17AM 40.6350 -73.7800 37° Northeast 28 32  Level FlightAware
01:18AM 40.6360 -73.7790 37° Northeast 29 33  Level FlightAware
01:18AM 40.6380 -73.7780 21° North 34 39  Level FlightAware
01:18AM 40.6380 -73.7770 90° East 33 38 60 Level FlightAware
01:19AM 40.6400 -73.7760 21° North 23 26 60 Level FlightAware
01:19AM 40.6400 -73.7750 90° East 21 24 60 Level FlightAware
01:19AM 40.6410 -73.7750 360° North 20 23 60 Level FlightAware
01:20AM 40.6420 -73.7750 360° North 22 25 60 Level FlightAware
01:20AM 40.6430 -73.7740 37° Northeast 23 26 60 Level FlightAware
01:21AM 40.6430 -73.7730 90° East 20 23 120 Level FlightAware
01:21AM 40.6440 -73.7720 37° Northeast 20 23 120 Level FlightAware
01:22AM 40.6430 -73.7700 123° Southeast 23 26 180 Level FlightAware
01:22AM 40.6420 -73.7710 217° Southwest 15 17 240 Level FlightAware
01:22AM 40.6390 -73.7730 207° Southwest 84 97 360 Level FlightAware
01:23AM 40.6230 -73.7850 210° Southwest 168 193 300 1,500 Climbing FlightAware
01:23AM 40.6060 -73.7990 212° Southwest 167 192 1,400 1,980 Climbing FlightAware
01:24AM 40.5860 -73.8140 210° Southwest 196 226 2,100 1,200 Climbing FlightAware
01:24AM 40.5700 -73.8170 188° South 230 265 2,300 780 Climbing FlightAware
01:24AM 40.5560 -73.8110 162° South 254 292 2,500 1,500 Climbing FlightAware
01:25AM 40.5420 -73.7940 137° Southeast 280 322 3,000 2,040 Climbing FlightAware
01:25AM 40.5260 -73.7520 117° Southeast 306 352 3,900 2,280 Climbing FlightAware
01:25AM 40.5230 -73.7230 98° East 317 365 4,600 2,340 Climbing FlightAware
01:25AM 40.5210 -73.7000 97° East 313 360 5,000 1,920 Climbing FlightAware
01:26AM 40.5120 -73.6470 103° East 315 362 5,900 2,400 Climbing FlightAware
01:26AM 40.5060 -73.6190 106° East 312 359 6,800 2,520 Climbing FlightAware
01:27AM 40.4950 -73.5710 107° East 324 373 7,700 2,460 Climbing FlightAware
01:27AM 40.4830 -73.5170 106° East 327 376 9,000 2,640 Climbing FlightAware
01:28AM 40.4660 -73.4360 105° East 334 384 10,800 1,860 Climbing FlightAware
01:29AM 40.4490 -73.3440 104° East 376 433 11,700 1,320 Climbing FlightAware
01:29AM 40.4310 -73.2460 104° East 408 470 12,700 1,500 Climbing FlightAware
01:30AM 40.4200 -73.1640 100° East 435 501 13,600 1,920 Climbing FlightAware
01:31AM 40.4320 -73.0420 83° East 448 516 15,300 2,220 Climbing FlightAware
01:31AM 40.4480 -72.9130 81° East 459 528 17,100 2,160 Climbing FlightAware
01:32AM 40.4640 -72.8010 79° East 465 535 18,400 1,800 Climbing FlightAware
01:33AM 40.4790 -72.6850 80° East 474 545 19,600 1,740 Climbing FlightAware
01:33AM 40.4960 -72.5560 80° East 483 556 20,900 1,620 Climbing FlightAware
01:34AM 40.5120 -72.4380 80° East 492 566 21,900 1,560 Climbing FlightAware
01:35AM 40.5270 -72.3190 81° East 499 574 23,000 1,500 Climbing FlightAware
01:36AM 40.5450 -72.1800 80° East 509 586 24,100 780 Climbing FlightAware
01:36AM 40.5580 -72.0840 80° East 509 586 24,100  Level FlightAware
01:37AM 40.5750 -71.9590 80° East 509 586 24,100  Level FlightAware
01:38AM 40.5870 -71.8660 80° East 509 586 24,100  Level FlightAware
01:39AM 40.6080 -71.7070 80° East 509 586 24,100  Level FlightAware
01:39AM 40.6210 -71.6140 80° East 509 586 24,100 3,180 Level FlightAware
01:40AM 40.6608 -71.3183 80° East 536 617 29,200 3,240 Climbing Boston Center
01:41AM 40.6858 -71.1236 80° East 541 623 30,600 1,140 Climbing Boston Center
01:43AM 40.7436 -70.6731 80° East 541 623 33,000 720 Climbing New York Center
01:44AM 40.7644 -70.4731 82° East 541 623 33,000  Level New York Center
01:45AM 40.7889 -70.2839 80° East 541 623 33,000  Level New York Center
01:46AM 40.8108 -70.0919 81° East 541 623 33,000  Level New York Center
01:47AM 40.8306 -69.9000 82° East 541 623 33,000  Level New York Center
01:48AM 40.8519 -69.7022 82° East 541 623 33,000  Level New York Center
01:49AM 40.8750 -69.5069 81° East 541 623 33,000  Level New York Center
01:50AM 40.8958 -69.3144 82° East 536 617 33,000  Level New York Center
01:51AM 40.9164 -69.1164 82° East 542 624 33,000  Level New York Center
01:52AM 40.9364 -68.9239 82° East 542 624 33,000  Level New York Center
01:53AM 40.9542 -68.7283 83° East 542 624 33,000  Level New York Center
01:54AM 40.9758 -68.5272 82° East 542 624 33,000  Level New York Center
01:55AM 40.9947 -68.3286 83° East 542 624 33,000  Level New York Center
01:56AM 41.0156 -68.1300 82° East 542 624 33,000  Level New York Center
01:57AM 41.0322 -67.9342 83° East 542 624 33,000  Level New York Center
01:58AM 41.0503 -67.7325 83° East 542 624 33,000  Level New York Center
01:59AM 41.0681 -67.5336 83° East 542 624 33,000  Level New York Center
02:00AM 41.0853 -67.3347 83° East 542 624 33,000  Level New York Center
02:01AM 41.1044 -67.1328 83° East 542 624 33,000  Level New York Center
02:02AM 41.1256 -66.9361 82° East 542 624 33,000  Level New York Center
02:03AM 41.1567 -66.7386 78° East 542 624 33,000  Level New York Center
02:04AM 41.1167 -67.0000 78° East 548 631 33,000  Level New York Oceanic (ODAPS)
02:11AM 41.3842 -65.2189 79° East 548 631 33,000  Level FlightAware Transoceanic
02:12AM 41.4122 -65.0201 79° East 548 631 33,000  Level FlightAware Transoceanic
02:13AM 41.4399 -64.8212 80° East 548 631 33,000  Level FlightAware Transoceanic
02:14AM 41.4672 -64.6221 80° East 548 631 33,000  Level FlightAware Transoceanic
02:15AM 41.4942 -64.4228 80° East 548 631 33,000  Level FlightAware Transoceanic
02:16AM 41.5209 -64.2233 80° East 548 631 33,000  Level FlightAware Transoceanic
02:17AM 41.5472 -64.0237 80° East 548 631 33,000  Level FlightAware Transoceanic
02:18AM 41.5731 -63.8239 80° East 548 631 33,000  Level FlightAware Transoceanic
02:19AM 41.5988 -63.6240 80° East 548 631 33,000  Level FlightAware Transoceanic
02:20AM 41.6240 -63.4239 80° East 548 631 33,000  Level FlightAware Transoceanic
02:21AM 41.6489 -63.2236 81° East 548 631 33,000  Level FlightAware Transoceanic
02:22AM 41.6735 -63.0232 81° East 548 631 33,000  Level FlightAware Transoceanic
02:23AM 41.6977 -62.8227 81° East 548 631 33,000  Level FlightAware Transoceanic
02:24AM 41.7216 -62.6220 81° East 548 631 33,000  Level FlightAware Transoceanic
02:25AM 41.7451 -62.4211 81° East 548 631 33,000  Level FlightAware Transoceanic
02:26AM 41.7683 -62.2201 81° East 548 631 33,000  Level FlightAware Transoceanic
02:27AM 41.7911 -62.0190 81° East 548 631 33,000  Level FlightAware Transoceanic
02:28AM 41.8136 -61.8177 82° East 548 631 33,000  Level FlightAware Transoceanic
02:29AM 41.8357 -61.6162 82° East 548 631 33,000  Level FlightAware Transoceanic
02:30AM 41.8575 -61.4147 82° East 548 631 33,000  Level FlightAware Transoceanic
02:31AM 41.8789 -61.2130 82° East 548 631 33,000  Level FlightAware Transoceanic
02:32AM 41.9000 -61.0111 82° East 548 631 33,000  Level FlightAware Transoceanic
02:33AM 41.9207 -60.8092 82° East 548 631 33,000  Level FlightAware Transoceanic
02:34AM 41.9411 -60.6071 82° East 548 631 33,000  Level FlightAware Transoceanic
02:35AM 41.9611 -60.4048 82° East 548 631 33,000  Level FlightAware Transoceanic
02:36AM 41.9807 -60.2025 83° East 548 631 33,000  Level FlightAware Transoceanic
02:37AM 42.0000 -60.0000 79° East 548 631 33,000  Level FlightAware Transoceanic
02:38AM 42.0309 -59.7864 79° East 548 631 33,000  Level FlightAware Transoceanic
02:38AM 42.0000 -60.0000 79° East 571 657 33,000  Level New York Oceanic (ODAPS)
02:39AM 42.0614 -59.5727 79° East 548 631 33,000  Level FlightAware Transoceanic
02:40AM 42.0915 -59.3587 79° East 548 631 33,000  Level FlightAware Transoceanic
02:41AM 42.1212 -59.1445 79° East 548 631 33,000  Level FlightAware Transoceanic
02:42AM 42.1505 -58.9302 80° East 548 631 33,000  Level FlightAware Transoceanic
02:43AM 42.1794 -58.7156 80° East 548 631 33,000  Level FlightAware Transoceanic
02:44AM 42.2312 -58.3225 80° East 571 657 33,000  Level FlightAware Transoceanic
02:45AM 42.2584 -58.1119 80° East 571 657 33,000  Level FlightAware Transoceanic
02:46AM 42.2852 -57.9012 80° East 571 657 33,000  Level FlightAware Transoceanic
02:47AM 42.3116 -57.6903 80° East 571 657 33,000  Level FlightAware Transoceanic
02:48AM 42.3376 -57.4793 81° East 571 657 33,000  Level FlightAware Transoceanic
02:49AM 42.3632 -57.2680 81° East 571 657 33,000  Level FlightAware Transoceanic
02:50AM 42.3885 -57.0566 81° East 571 657 33,000  Level FlightAware Transoceanic
02:51AM 42.4133 -56.8450 81° East 571 657 33,000  Level FlightAware Transoceanic
02:52AM 42.4378 -56.6333 81° East 571 657 33,000  Level FlightAware Transoceanic
02:53AM 42.4619 -56.4214 81° East 571 657 33,000  Level FlightAware Transoceanic
02:54AM 42.4856 -56.2093 81° East 571 657 33,000  Level FlightAware Transoceanic
02:55AM 42.5089 -55.9971 82° East 571 657 33,000  Level FlightAware Transoceanic
02:56AM 42.5318 -55.7847 82° East 571 657 33,000  Level FlightAware Transoceanic
02:57AM 42.5543 -55.5721 82° East 571 657 33,000  Level FlightAware Transoceanic
02:58AM 42.5764 -55.3594 82° East 571 657 33,000  Level FlightAware Transoceanic
02:59AM 42.5981 -55.1466 82° East 571 657 33,000  Level FlightAware Transoceanic
03:00AM 42.6194 -54.9336 82° East 571 657 33,000  Level FlightAware Transoceanic
03:01AM 42.6404 -54.7204 82° East 571 657 33,000  Level FlightAware Transoceanic
03:02AM 42.6609 -54.5071 83° East 571 657 33,000  Level FlightAware Transoceanic
03:03AM 42.6810 -54.2937 83° East 571 657 33,000  Level FlightAware Transoceanic
03:04AM 42.7008 -54.0802 83° East 571 657 33,000  Level FlightAware Transoceanic
03:05AM 42.7201 -53.8665 83° East 571 657 33,000  Level FlightAware Transoceanic
03:06AM 42.7391 -53.6526 83° East 571 657 33,000  Level FlightAware Transoceanic
03:07AM 42.7576 -53.4387 83° East 571 657 33,000  Level FlightAware Transoceanic
03:08AM 42.7758 -53.2246 83° East 571 657 33,000  Level FlightAware Transoceanic
03:09AM 42.7936 -53.0104 84° East 571 657 33,000  Level FlightAware Transoceanic
03:10AM 42.8109 -52.7961 84° East 571 657 33,000  Level FlightAware Transoceanic
03:11AM 42.8279 -52.5816 84° East 571 657 33,000  Level FlightAware Transoceanic
03:12AM 42.8444 -52.3671 84° East 571 657 33,000  Level FlightAware Transoceanic
03:13AM 42.8606 -52.1524 84° East 571 657 33,000  Level FlightAware Transoceanic
03:14AM 42.8763 -51.9376 84° East 571 657 33,000  Level FlightAware Transoceanic
03:15AM 42.8917 -51.7227 85° East 571 657 33,000  Level FlightAware Transoceanic
03:16AM 42.9066 -51.5077 85° East 571 657 33,000  Level FlightAware Transoceanic
03:17AM 42.9212 -51.2926 85° East 571 657 33,000  Level FlightAware Transoceanic
03:18AM 42.9353 -51.0774 85° East 571 657 33,000  Level FlightAware Transoceanic
03:19AM 42.9491 -50.8621 85° East 571 657 33,000  Level FlightAware Transoceanic
03:20AM 42.9624 -50.6467 85° East 571 657 33,000  Level FlightAware Transoceanic
03:21AM 42.9753 -50.4312 85° East 571 657 33,000  Level FlightAware Transoceanic
03:22AM 42.9879 -50.2157 86° East 571 657 33,000  Level FlightAware Transoceanic
03:23AM 43.0000 -50.0000 71° East 571 657 33,000  Level FlightAware Transoceanic
03:24AM 43.0514 -49.7946 71° East 571 657 33,000  Level FlightAware Transoceanic
03:25AM 43.1025 -49.5888 71° East 571 657 33,000  Level FlightAware Transoceanic
03:25AM 43.0000 -50.0000 71° East 585 673 33,000  Level New York Oceanic (ODAPS)
03:26AM 43.1532 -49.3827 71° East 571 657 33,000  Level FlightAware Transoceanic
03:27AM 43.2035 -49.1763 72° East 571 657 33,000  Level FlightAware Transoceanic
03:28AM 43.2535 -48.9695 72° East 571 657 33,000  Level FlightAware Transoceanic
03:29AM 43.3031 -48.7623 72° East 571 657 33,000  Level FlightAware Transoceanic
03:30AM 43.3523 -48.5549 72° East 571 657 33,000  Level FlightAware Transoceanic
03:31AM 43.4096 -48.3109 72° East 585 673 33,000  Level FlightAware Transoceanic
03:32AM 43.4590 -48.0982 72° East 585 673 33,000  Level FlightAware Transoceanic
03:33AM 43.5081 -47.8851 72° East 585 673 33,000  Level FlightAware Transoceanic
03:34AM 43.5567 -47.6717 73° East 585 673 33,000  Level FlightAware Transoceanic
03:35AM 43.6050 -47.4580 73° East 585 673 33,000  Level FlightAware Transoceanic
03:36AM 43.6528 -47.2439 73° East 585 673 33,000  Level FlightAware Transoceanic
03:37AM 43.7003 -47.0294 73° East 585 673 33,000  Level FlightAware Transoceanic
03:38AM 43.7473 -46.8147 73° East 585 673 33,000  Level FlightAware Transoceanic
03:39AM 43.7940 -46.5995 73° East 585 673 33,000  Level FlightAware Transoceanic
03:40AM 43.8402 -46.3841 74° East 585 673 33,000  Level FlightAware Transoceanic
03:41AM 43.8861 -46.1683 74° East 585 673 33,000  Level FlightAware Transoceanic
03:42AM 43.9315 -45.9522 74° East 585 673 33,000  Level FlightAware Transoceanic
03:43AM 43.9765 -45.7358 74° East 585 673 33,000  Level FlightAware Transoceanic
03:44AM 44.0211 -45.5190 74° East 585 673 33,000  Level FlightAware Transoceanic
03:45AM 44.0653 -45.3019 74° East 585 673 33,000  Level FlightAware Transoceanic
03:46AM 44.1091 -45.0845 74° East 585 673 33,000  Level FlightAware Transoceanic
03:47AM 44.1525 -44.8668 75° East 585 673 33,000  Level FlightAware Transoceanic
03:48AM 44.1955 -44.6487 75° East 585 673 33,000  Level FlightAware Transoceanic
03:49AM 44.2380 -44.4303 75° East 585 673 33,000  Level FlightAware Transoceanic
03:50AM 44.2802 -44.2117 75° East 585 673 33,000  Level FlightAware Transoceanic
03:51AM 44.3219 -43.9927 75° East 585 673 33,000  Level FlightAware Transoceanic
03:52AM 44.3632 -43.7733 75° East 585 673 33,000  Level FlightAware Transoceanic
03:53AM 44.4040 -43.5537 75° East 585 673 33,000  Level FlightAware Transoceanic
03:54AM 44.4445 -43.3338 76° East 585 673 33,000  Level FlightAware Transoceanic
03:55AM 44.4845 -43.1136 76° East 585 673 33,000  Level FlightAware Transoceanic
03:56AM 44.5242 -42.8931 76° East 585 673 33,000  Level FlightAware Transoceanic
03:57AM 44.5633 -42.6722 76° East 585 673 33,000  Level FlightAware Transoceanic
03:58AM 44.6021 -42.4511 76° East 585 673 33,000  Level FlightAware Transoceanic
03:59AM 44.6404 -42.2297 76° East 585 673 33,000  Level FlightAware Transoceanic
04:00AM 44.6783 -42.0080 77° East 585 673 33,000  Level FlightAware Transoceanic
04:01AM 44.7158 -41.7860 77° East 585 673 33,000  Level FlightAware Transoceanic
04:02AM 44.7528 -41.5637 77° East 585 673 33,000  Level FlightAware Transoceanic
04:03AM 44.7895 -41.3412 77° East 585 673 33,000  Level FlightAware Transoceanic
04:04AM 44.8256 -41.1183 77° East 585 673 33,000  Level FlightAware Transoceanic
04:05AM 44.8614 -40.8952 77° East 585 673 33,000  Level FlightAware Transoceanic
04:06AM 44.8967 -40.6718 78° East 585 673 33,000  Level FlightAware Transoceanic
04:07AM 44.9316 -40.4482 78° East 585 673 33,000  Level FlightAware Transoceanic
04:08AM 44.9660 -40.2242 78° East 585 673 33,000  Level FlightAware Transoceanic
04:09AM 45.0000 -40.0000 70° East 585 673 33,000  Level FlightAware Transoceanic
04:10AM 45.0525 -39.7906 71° East 585 673 33,000  Level FlightAware Transoceanic
04:11AM 45.1047 -39.5809 71° East 585 673 33,000  Level FlightAware Transoceanic
04:12AM 45.1565 -39.3708 71° East 585 673 33,000  Level FlightAware Transoceanic
04:12AM 45.0000 -40.0000 70° East 565 650 33,000  Level ETMS Enhanced Traffic Management System
04:13AM 45.2079 -39.1603 71° East 585 673 33,000  Level FlightAware Transoceanic
04:14AM 45.2589 -38.9494 71° East 585 673 33,000  Level FlightAware Transoceanic
04:15AM 45.3095 -38.7381 71° East 585 673 33,000  Level FlightAware Transoceanic
04:16AM 45.3597 -38.5265 71° East 585 673 33,000  Level FlightAware Transoceanic
04:17AM 45.4095 -38.3145 72° East 585 673 33,000  Level FlightAware Transoceanic
04:18AM 45.4095 -38.3145 72° East 565 650 33,000  Level FlightAware Transoceanic
04:19AM 45.4590 -38.1021 72° East 565 650 33,000  Level FlightAware Transoceanic
04:20AM 45.5080 -37.8894 72° East 565 650 33,000  Level FlightAware Transoceanic
04:21AM 45.5567 -37.6762 72° East 565 650 33,000  Level FlightAware Transoceanic
04:22AM 45.6049 -37.4627 72° East 565 650 33,000  Level FlightAware Transoceanic
04:23AM 45.6528 -37.2489 72° East 565 650 33,000  Level FlightAware Transoceanic
04:24AM 45.7002 -37.0347 72° East 565 650 33,000  Level FlightAware Transoceanic
04:25AM 45.7473 -36.8201 73° East 565 650 33,000  Level FlightAware Transoceanic
04:26AM 45.7939 -36.6051 73° East 565 650 33,000  Level FlightAware Transoceanic
04:27AM 45.8402 -36.3898 73° East 565 650 33,000  Level FlightAware Transoceanic
04:28AM 45.8860 -36.1742 73° East 565 650 33,000  Level FlightAware Transoceanic
04:29AM 45.9315 -35.9582 73° East 565 650 33,000  Level FlightAware Transoceanic
04:30AM 45.9765 -35.7418 73° East 565 650 33,000  Level FlightAware Transoceanic
04:31AM 46.0211 -35.5251 74° East 565 650 33,000  Level FlightAware Transoceanic
04:32AM 46.0653 -35.3080 74° East 565 650 33,000  Level FlightAware Transoceanic
04:33AM 46.1091 -35.0906 74° East 565 650 33,000  Level FlightAware Transoceanic
04:34AM 46.1525 -34.8728 74° East 565 650 33,000  Level FlightAware Transoceanic
04:35AM 46.1955 -34.6548 74° East 565 650 33,000  Level FlightAware Transoceanic
04:36AM 46.2380 -34.4363 74° East 565 650 33,000  Level FlightAware Transoceanic
04:37AM 46.2802 -34.2175 75° East 565 650 33,000  Level FlightAware Transoceanic
04:38AM 46.3219 -33.9984 75° East 565 650 33,000  Level FlightAware Transoceanic
04:39AM 46.3632 -33.7790 75° East 565 650 33,000  Level FlightAware Transoceanic
04:40AM 46.4041 -33.5592 75° East 565 650 33,000  Level FlightAware Transoceanic
04:41AM 46.4445 -33.3391 75° East 565 650 33,000  Level FlightAware Transoceanic
04:42AM 46.4846 -33.1187 75° East 565 650 33,000  Level FlightAware Transoceanic
04:43AM 46.5242 -32.8979 75° East 565 650 33,000  Level FlightAware Transoceanic
04:44AM 46.5634 -32.6769 76° East 565 650 33,000  Level FlightAware Transoceanic
04:45AM 46.6021 -32.4555 76° East 565 650 33,000  Level FlightAware Transoceanic
04:46AM 46.6404 -32.2338 76° East 565 650 33,000  Level FlightAware Transoceanic
04:47AM 46.6783 -32.0118 76° East 565 650 33,000  Level FlightAware Transoceanic
04:48AM 46.7158 -31.7894 76° East 565 650 33,000  Level FlightAware Transoceanic
04:49AM 46.7529 -31.5668 76° East 565 650 33,000  Level FlightAware Transoceanic
04:50AM 46.7895 -31.3439 77° East 565 650 33,000  Level FlightAware Transoceanic
04:51AM 46.8257 -31.1206 77° East 565 650 33,000  Level FlightAware Transoceanic
04:52AM 46.8614 -30.8971 77° East 565 650 33,000  Level FlightAware Transoceanic
04:53AM 46.8967 -30.6733 77° East 565 650 33,000  Level FlightAware Transoceanic
04:54AM 46.9316 -30.4491 77° East 565 650 33,000  Level FlightAware Transoceanic
04:55AM 46.9506 -30.2389 82° East  Level Estimated
04:56AM 46.9693 -30.0285 83° East  Level Estimated
04:57AM 46.9876 -29.8181 83° East  Level Estimated
04:58AM 47.0055 -29.6074 83° East  Level Estimated
04:59AM 47.0230 -29.3966 83° East  Level Estimated
05:00AM 47.0401 -29.1857 83° East  Level Estimated
05:01AM 47.0569 -28.9747 83° East  Level Estimated
05:01AM 47.0000 -30.0000 78° East 558 642 33,000  Level ETMS Enhanced Traffic Management System
05:02AM 47.0732 -28.7635 83° East  Level Estimated
05:03AM 47.0892 -28.5522 84° East  Level Estimated
05:04AM 47.1048 -28.3407 84° East  Level Estimated
05:05AM 47.1199 -28.1292 84° East  Level Estimated
05:06AM 47.1347 -27.9175 84° East  Level Estimated
05:07AM 47.2342 -28.7439 74° East  Level FlightAware Approximate
05:08AM 47.2719 -28.5335 75° East  Level FlightAware Approximate
05:09AM 47.3092 -28.3228 75° East  Level FlightAware Approximate
05:10AM 47.3462 -28.1118 75° East  Level FlightAware Approximate
05:11AM 47.3827 -27.9006 76° East  Level FlightAware Approximate
05:12AM 47.4189 -27.6890 76° East  Level FlightAware Approximate
05:13AM 47.4546 -27.4771 76° East  Level FlightAware Approximate
05:14AM 47.4900 -27.2649 76° East  Level FlightAware Approximate
05:15AM 47.5250 -27.0525 76° East  Level FlightAware Approximate
05:16AM 47.5596 -26.8397 76° East  Level FlightAware Approximate
05:17AM 47.5937 -26.6267 77° East  Level FlightAware Approximate
05:18AM 47.6275 -26.4135 77° East  Level FlightAware Approximate
05:19AM 47.6609 -26.1999 77° East  Level FlightAware Approximate
05:20AM 47.6939 -25.9861 77° East  Level FlightAware Approximate
05:21AM 47.7265 -25.7720 77° East  Level FlightAware Approximate
05:22AM 47.7587 -25.5576 77° East  Level FlightAware Approximate
05:23AM 47.7906 -25.3430 77° East  Level FlightAware Approximate
05:24AM 47.8220 -25.1281 78° East  Level FlightAware Approximate
05:25AM 47.8530 -24.9129 78° East  Level FlightAware Approximate
05:26AM 47.8836 -24.6975 78° East  Level FlightAware Approximate
05:27AM 47.9138 -24.4818 78° East  Level FlightAware Approximate
05:28AM 47.9436 -24.2659 78° East  Level FlightAware Approximate
05:29AM 47.9729 -24.0498 78° East  Level FlightAware Approximate
05:30AM 48.0019 -23.8334 79° East  Level FlightAware Approximate
05:31AM 48.0305 -23.6167 79° East  Level FlightAware Approximate
05:32AM 48.0587 -23.3999 79° East  Level FlightAware Approximate
05:33AM 48.0864 -23.1827 79° East  Level FlightAware Approximate
05:34AM 48.1138 -22.9654 79° East  Level FlightAware Approximate
05:35AM 48.1407 -22.7478 79° East  Level FlightAware Approximate
05:36AM 48.1673 -22.5300 80° East  Level FlightAware Approximate
05:37AM 48.1934 -22.3120 80° East  Level FlightAware Approximate
05:38AM 48.2191 -22.0937 80° East  Level FlightAware Approximate
05:39AM 48.2444 -21.8752 80° East  Level FlightAware Approximate
05:40AM 48.2692 -21.6566 80° East  Level FlightAware Approximate
05:41AM 48.2937 -21.4377 80° East  Level FlightAware Approximate
05:42AM 48.3177 -21.2186 81° East  Level FlightAware Approximate
05:43AM 48.3414 -20.9993 81° East  Level FlightAware Approximate
05:44AM 48.3646 -20.7798 81° East  Level FlightAware Approximate
05:45AM 48.3874 -20.5600 81° East  Level FlightAware Approximate
05:46AM 48.4098 -20.3402 81° East  Level FlightAware Approximate
05:47AM 48.4317 -20.1201 81° East  Level FlightAware Approximate
05:48AM 48.4533 -19.8998 82° East  Level FlightAware Approximate
05:49AM 48.4744 -19.6793 82° East  Level FlightAware Approximate
05:50AM 48.4951 -19.4587 82° East  Level FlightAware Approximate
05:51AM 48.5153 -19.2378 82° East  Level FlightAware Approximate
05:52AM 48.5352 -19.0168 82° East  Level FlightAware Approximate
05:53AM 48.5546 -18.7957 82° East  Level FlightAware Approximate
05:54AM 48.5736 -18.5743 83° East  Level FlightAware Approximate
05:55AM 48.5922 -18.3528 83° East  Level FlightAware Approximate
05:56AM 48.6103 -18.1311 83° East  Level FlightAware Approximate
05:57AM 48.6281 -17.9093 83° East  Level FlightAware Approximate
05:58AM 48.6454 -17.6873 83° East  Level FlightAware Approximate
05:59AM 48.6622 -17.4652 83° East  Level FlightAware Approximate
06:00AM 48.6787 -17.2429 84° East  Level FlightAware Approximate
06:01AM 48.6947 -17.0205 84° East  Level FlightAware Approximate
06:02AM 48.7103 -16.7980 84° East  Level FlightAware Approximate
06:03AM 48.7255 -16.5753 84° East  Level FlightAware Approximate
06:04AM 48.7402 -16.3524 84° East  Level FlightAware Approximate
06:05AM 48.7545 -16.1295 84° East  Level FlightAware Approximate
06:06AM 48.7684 -15.9064 85° East  Level FlightAware Approximate
06:07AM 48.7818 -15.6832 85° East  Level FlightAware Approximate
06:08AM 48.7948 -15.4599 85° East  Level FlightAware Approximate
06:09AM 48.8074 -15.2364 85° East  Level FlightAware Approximate
06:10AM 48.8195 -15.0129 85° East  Level FlightAware Approximate
06:11AM 48.8312 -14.7892 85° East  Level FlightAware Approximate
06:12AM 48.8425 -14.5655 86° East  Level FlightAware Approximate
06:13AM 48.8534 -14.3416 86° East  Level FlightAware Approximate
06:14AM 48.8638 -14.1177 86° East  Level FlightAware Approximate
06:15AM 48.8738 -13.8937 86° East  Level FlightAware Approximate
06:16AM 48.8833 -13.6695 86° East  Level FlightAware Approximate
06:17AM 48.8924 -13.4453 86° East  Level FlightAware Approximate
06:18AM 48.9012 -13.2211 86° East  Level FlightAware Approximate
06:19AM 48.9103 -12.9968 86° East  Level FlightAware Approximate
06:20AM 48.9190 -12.7724 87° East  Level FlightAware Approximate
06:21AM 48.9272 -12.5479 87° East  Level FlightAware Approximate
06:22AM 48.9350 -12.3234 87° East  Level FlightAware Approximate
06:23AM 48.9424 -12.0988 87° East  Level FlightAware Approximate
06:24AM 48.9493 -11.8742 87° East  Level FlightAware Approximate
06:25AM 48.9558 -11.6495 87° East  Level FlightAware Approximate
06:26AM 48.9618 -11.4247 88° East  Level FlightAware Approximate
06:26AM 49.0364 -8.9869 88° East 1 1 33,000  Level FlightAware UK
06:26AM 49.0334 -8.8213 92° East 498 573 33,000  Level FlightAware UK
06:27AM 49.0313 -8.7040 92° East 500 575 33,000  Level FlightAware UK
06:27AM 49.0295 -8.5868 91° East 500 575 33,000  Level FlightAware UK
06:28AM 49.0270 -8.5140 91° East 557 641 33,000  Level FlightAware
06:28AM 49.0272 -8.4695 91° East 500 575 33,000  Level FlightAware UK
06:28AM 49.0240 -8.3540 91° East 555 639 33,000  Level FlightAware
06:29AM 49.0222 -8.2359 91° East 500 575 33,000  Level FlightAware UK
06:29AM 49.0200 -8.1830 91° East 553 636 33,000  Level FlightAware
06:29AM 49.0198 -8.1195 91° East 498 573 33,000  Level FlightAware UK
06:30AM 49.0170 -8.0260 91° East 552 635 33,000  Level FlightAware
06:30AM 49.0130 -7.8730 92° East 551 634 33,000  Level FlightAware
06:31AM 49.0118 -7.7712 92° East 498 573 33,000  Level FlightAware UK
06:31AM 49.0090 -7.7030 92° East 549 632 33,000 180 Level FlightAware
06:31AM 49.0088 -7.6556 92° East 500 575 33,100 1,200 Climbing FlightAware UK
06:32AM 49.0050 -7.5470 92° East 547 629 33,800 1,500 Climbing FlightAware
06:32AM 48.9870 -7.3800 99° East 548 631 34,700 1,080 Climbing FlightAware
06:33AM 48.9629 -7.2964 99° East 490 564 35,200 1,020 Climbing FlightAware UK
06:33AM 48.9530 -7.2340 99° East 548 631 35,400 1,200 Climbing FlightAware
06:34AM 48.9293 -7.1927 99° East 490 564 35,800 1,140 Climbing FlightAware UK
06:34AM 48.9070 -7.0910 99° East 549 632 36,200 900 Climbing FlightAware
06:35AM 48.8610 -6.9865 99° East 490 564 36,700 900 Climbing FlightAware UK
06:35AM 48.8560 -6.9380 99° East 550 633 36,900 540 Climbing FlightAware
06:35AM 48.8263 -6.8829 99° East 492 566 37,000 120 Climbing FlightAware UK
06:35AM 48.8070 -6.7890 99° East 550 633 37,000  Level FlightAware
06:36AM 48.7620 -6.6570 117° Southeast 548 631 37,000  Level FlightAware
06:37AM 48.7225 -6.5745 117° Southeast 490 564 37,000  Level FlightAware UK
06:37AM 48.7100 -6.5010 117° Southeast 546 628 37,000  Level FlightAware
06:37AM 48.6877 -6.4727 117° Southeast 488 562 37,000  Level FlightAware UK
06:37AM 48.6640 -6.3650 117° Southeast 543 625 37,000  Level FlightAware
06:38AM 48.6150 -6.2240 118° Southeast 542 624 37,000  Level FlightAware
06:38AM 48.5976 -6.2102 118° Southeast 486 559 37,000  Level FlightAware UK
06:39AM 48.5670 -6.0840 118° Southeast 541 623 37,000  Level FlightAware
06:39AM 48.5211 -5.9895 118° Southeast 486 559 37,000  Level FlightAware UK
06:39AM 48.5220 -5.9520 118° Southeast 541 623 37,000  Level FlightAware
06:40AM 48.4863 -5.8896 118° Southeast 490 564 37,000  Level FlightAware UK
06:40AM 48.4850 -5.8450 118° Southeast 540 621 37,000  Level FlightAware
06:40AM 48.4512 -5.7892 118° Southeast 486 559 37,000  Level FlightAware UK
06:41AM 48.4220 -5.6660 118° Southeast 539 620 37,000  Level FlightAware
06:42AM 48.3710 -5.5190 118° Southeast 539 620 37,000  Level FlightAware
06:42AM 48.3260 -5.3910 118° Southeast 539 620 37,000  Level FlightAware
06:43AM 48.2730 -5.2420 118° Southeast 540 621 37,000  Level FlightAware
06:44AM 48.2331 -5.1733 118° Southeast 486 559 37,000  Level FlightAware UK
06:44AM 48.2260 -5.1110 118° Southeast 540 621 37,000  Level FlightAware
06:44AM 48.1710 -4.9580 118° Southeast 539 620 37,000  Level FlightAware
06:45AM 48.1260 -4.8340 118° Southeast 537 618 37,000  Level FlightAware
06:46AM 48.0730 -4.6850 118° Southeast 536 617 37,000  Level FlightAware
06:47AM 48.0260 -4.5550 118° Southeast 536 617 37,000  Level FlightAware
06:47AM 47.9730 -4.4130 119° Southeast 535 616 37,000  Level FlightAware
06:48AM 47.9250 -4.2820 119° Southeast 533 613 37,000  Level FlightAware
06:49AM 47.8760 -4.1480 119° Southeast 531 611 37,000  Level FlightAware
06:49AM 47.8270 -4.0160 119° Southeast 529 609 37,000  Level FlightAware
06:50AM 47.7770 -3.8800 119° Southeast 527 606 37,000  Level FlightAware
06:51AM 47.7290 -3.7530 119° Southeast 525 604 37,000  Level FlightAware
06:51AM 47.6750 -3.6090 119° Southeast 523 602 37,000  Level FlightAware
06:52AM 47.6280 -3.4840 119° Southeast 521 600 37,000  Level FlightAware
06:53AM 47.5830 -3.3650 119° Southeast 520 598 37,000  Level FlightAware
06:54AM 47.5300 -3.2240 119° Southeast 519 597 37,000  Level FlightAware
06:54AM 47.4800 -3.0940 120° Southeast 520 598 37,000  Level FlightAware
06:55AM 47.3950 -2.8740 120° Southeast 518 596 37,000  Level FlightAware
06:56AM 47.3470 -2.7510 120° Southeast 518 596 37,000  Level FlightAware
06:57AM 47.2940 -2.6140 120° Southeast 519 597 37,000  Level FlightAware
06:57AM 47.2470 -2.4920 120° Southeast 519 597 37,000  Level FlightAware
06:58AM 47.1990 -2.3700 120° Southeast 519 597 37,000  Level FlightAware
06:59AM 47.1460 -2.2370 120° Southeast 520 598 37,000  Level FlightAware
07:00AM 47.0980 -2.1150 120° Southeast 521 600 37,000  Level FlightAware
07:00AM 47.0480 -1.9900 120° Southeast 522 601 37,000  Level FlightAware
07:01AM 46.9970 -1.8640 121° Southeast 523 602 37,000  Level FlightAware
07:02AM 46.9380 -1.7180 121° Southeast 523 602 37,000  Level FlightAware
07:02AM 46.8880 -1.5970 121° Southeast 524 603 37,000  Level FlightAware
07:03AM 46.8320 -1.4610 121° Southeast 526 605 37,000  Level FlightAware
07:04AM 46.7810 -1.3380 121° Southeast 526 605 37,000  Level FlightAware
07:05AM 46.7280 -1.2080 121° Southeast 525 604 37,000  Level FlightAware
07:05AM 46.6700 -1.0690 121° Southeast 526 605 37,000  Level FlightAware
07:06AM 46.6150 -0.9040 116° Southeast 525 604 37,000  Level FlightAware
07:07AM 46.5970 -0.7870 103° East 526 605 37,000  Level FlightAware
07:08AM 46.5750 -0.6370 102° East 526 605 37,000  Level FlightAware
07:08AM 46.5590 -0.5310 102° East 526 605 37,000  Level FlightAware
07:09AM 46.5280 -0.3570 104° East 526 605 37,000  Level FlightAware
07:10AM 46.5010 -0.1740 102° East 527 606 37,000  Level FlightAware
07:10AM 46.4790 -0.0220 102° East 533 613 37,000  Level FlightAware
07:11AM 46.4490 0.1730 103° East 535 616 37,000  Level FlightAware
07:12AM 46.4280 0.3110 102° East 537 618 37,000  Level FlightAware
07:13AM 46.4030 0.4740 102° East 536 617 37,000  Level FlightAware
07:13AM 46.3850 0.5870 103° East 536 617 37,000  Level FlightAware
07:14AM 46.3550 0.7770 103° East 536 617 37,000  Level FlightAware
07:15AM 46.3270 0.9570 103° East 533 613 37,000  Level FlightAware
07:16AM 46.3050 1.0930 103° East 529 609 37,000  Level FlightAware
07:16AM 46.2810 1.2420 103° East 529 609 37,000  Level FlightAware
07:17AM 46.2570 1.3840 104° East 526 605 37,000  Level FlightAware
07:18AM 46.2360 1.5170 103° East 528 608 37,000  Level FlightAware
07:19AM 46.2080 1.6860 103° East 527 606 37,000  Level FlightAware
07:19AM 46.1917 1.7824 104° East 527 606 37,000  Level FlightAware ADS-B
07:20AM 46.1720 1.8990 104° East 528 608 37,000  Level FlightAware
07:20AM 46.1462 2.0511 104° East 527 606 37,000  Level FlightAware ADS-B
07:21AM 46.1188 2.2103 104° East 527 606 37,000  Level FlightAware ADS-B
07:22AM 46.0970 2.3360 104° East 527 606 37,000  Level FlightAware ADS-B
07:22AM 46.0720 2.4760 104° East 527 606 37,000  Level FlightAware
07:23AM 46.0480 2.6150 104° East 527 606 37,000  Level FlightAware
07:24AM 46.0305 2.7138 104° East 528 608 37,000  Level FlightAware ADS-B
07:25AM 45.9800 2.8880 113° Southeast 539 620 37,000  Level FlightAware
07:25AM 45.9160 3.0120 127° Southeast 541 623 37,000  Level FlightAware
07:26AM 45.8580 3.1260 126° Southeast 541 623 37,000  Level FlightAware
07:27AM 45.7870 3.2530 129° Southeast 543 625 37,000  Level FlightAware
07:27AM 45.7220 3.3690 129° Southeast 544 626 37,000  Level FlightAware
07:28AM 45.6610 3.4780 129° Southeast 545 627 37,000  Level FlightAware
07:29AM 45.6020 3.5840 128° Southeast 545 627 37,000  Level FlightAware
07:30AM 45.5110 3.7480 128° Southeast 547 629 37,000  Level FlightAware
07:31AM 45.4350 3.8810 129° Southeast 548 631 37,000  Level FlightAware
07:31AM 45.6300 3.5330 309° West 37,000  Level FlightAware
07:32AM 45.2700 4.1710 129° Southeast 545 627 37,000  Level FlightAware
07:33AM 45.2220 4.2570 128° Southeast 545 627 37,000  Level FlightAware
07:34AM 45.1260 4.4170 130° Southeast 546 628 37,000  Level FlightAware
07:34AM 45.0590 4.5330 129° Southeast 546 628 37,000  Level FlightAware
07:35AM 44.9880 4.6550 129° Southeast 547 629 37,000  Level FlightAware
07:36AM 44.9230 4.7680 129° Southeast 545 627 37,000  Level FlightAware
07:36AM 44.8500 4.8930 129° Southeast 545 627 37,000  Level FlightAware
07:37AM 44.7870 5.0010 129° Southeast 544 626 37,000  Level FlightAware
07:38AM 44.7200 5.1150 130° Southeast 544 626 37,000  Level FlightAware
07:39AM 44.6500 5.2350 129° Southeast 542 624 37,000  Level FlightAware
07:39AM 44.5840 5.3480 129° Southeast 541 623 37,000  Level FlightAware
07:40AM 44.5240 5.4510 129° Southeast 544 626 37,000  Level FlightAware
07:41AM 44.4530 5.5740 129° Southeast 543 625 37,000  Level FlightAware
07:41AM 44.3820 5.6950 129° Southeast 541 623 37,000  Level FlightAware
07:42AM 44.3100 5.8170 129° Southeast 541 623 37,000  Level FlightAware
07:43AM 44.2520 5.9270 126° Southeast 539 620 37,000  Level FlightAware
07:44AM 44.1790 6.0800 124° Southeast 533 613 37,000  Level FlightAware
07:44AM 44.1150 6.2100 124° Southeast 538 619 37,000  Level FlightAware
07:45AM 44.0380 6.3660 124° Southeast 537 618 37,000  Level FlightAware
07:46AM 43.9820 6.4770 125° Southeast 534 615 37,000  Level FlightAware
07:47AM 43.9230 6.5930 125° Southeast 534 615 37,000  Level FlightAware
07:47AM 43.8530 6.7320 125° Southeast 534 615 37,000  Level FlightAware
07:48AM 43.7750 6.8890 124° Southeast 532 612 37,000  Level FlightAware
07:49AM 43.7270 6.9930 123° Southeast 532 612 37,000  Level FlightAware
07:50AM 43.6780 7.1030 122° Southeast 531 611 37,000  Level FlightAware
07:50AM 43.6180 7.2400 121° Southeast 533 613 37,000  Level FlightAware
07:51AM 43.5680 7.3540 121° Southeast 532 612 37,000  Level FlightAware
07:52AM 43.5090 7.4850 122° Southeast 531 611 37,000  Level FlightAware
07:53AM 43.4510 7.6120 122° Southeast 531 611 37,000  Level FlightAware
07:53AM 43.4040 7.7170 122° Southeast 532 612 37,000  Level FlightAware
07:54AM 43.3460 7.8430 122° Southeast 534 615 37,000  Level FlightAware
07:55AM 43.2910 7.9650 122° Southeast 536 617 37,000  Level FlightAware
07:55AM 43.2320 8.0940 122° Southeast 536 617 37,000  Level FlightAware
07:56AM 43.1850 8.1980 122° Southeast 535 616 37,000  Level FlightAware
07:57AM 43.1180 8.3430 122° Southeast 536 617 37,000  Level FlightAware
07:57AM 43.0630 8.4620 122° Southeast 536 617 37,000  Level FlightAware
07:58AM 43.0110 8.5740 122° Southeast 537 618 37,000  Level FlightAware
07:59AM 42.9550 8.6950 122° Southeast 538 619 37,000  Level FlightAware
08:00AM 42.9000 8.8120 123° Southeast 539 620 37,000  Level FlightAware
08:00AM 42.8450 8.9290 123° Southeast 538 619 37,000  Level FlightAware
08:01AM 42.7870 9.0540 122° Southeast 539 620 37,000  Level FlightAware
08:02AM 42.7280 9.1790 123° Southeast 539 620 37,000  Level FlightAware
08:02AM 42.6730 9.2940 123° Southeast 541 623 37,000  Level FlightAware
08:03AM 42.6210 9.4040 123° Southeast 543 625 37,000  Level FlightAware
08:04AM 42.5750 9.5160 119° Southeast 542 624 37,000  Level FlightAware
08:04AM 42.5330 9.6610 111° Southeast 545 627 37,000  Level FlightAware
08:05AM 42.4930 9.7990 111° Southeast 546 628 37,000  Level FlightAware
08:06AM 42.4540 9.9440 110° East 546 628 37,000  Level FlightAware
08:07AM 42.4210 10.0680 110° East 544 626 37,000  Level FlightAware
08:07AM 42.3880 10.1890 110° East 543 625 37,000  Level FlightAware
08:08AM 42.3440 10.3500 110° East 543 625 37,000  Level FlightAware
08:09AM 42.3100 10.4730 110° East 543 625 37,000  Level FlightAware
08:09AM 42.2720 10.6130 110° East 542 624 37,000  Level FlightAware
08:10AM 42.2270 10.7770 110° East 536 617 37,000  Level FlightAware
08:10AM 42.2140 10.8230 111° Southeast 536 617 37,000  Level FlightAware
08:11AM 42.1630 11.0060 111° Southeast 537 618 37,000  Level FlightAware
08:12AM 42.1230 11.1490 111° Southeast 540 621 37,000  Level FlightAware
08:13AM 42.0900 11.2690 110° East 543 625 37,000  Level FlightAware
08:13AM 42.0510 11.3920 113° Southeast 544 626 37,000  Level FlightAware
08:14AM 41.9840 11.5120 127° Southeast 548 631 37,000  Level FlightAware
08:15AM 41.9250 11.5970 133° Southeast 548 631 37,000  Level FlightAware
08:16AM 41.8450 11.7090 134° Southeast 550 633 37,000  Level FlightAware
08:16AM 41.7780 11.8030 134° Southeast 550 633 37,000  Level FlightAware
08:17AM 41.6860 11.9300 134° Southeast 553 636 37,000  Level FlightAware
08:18AM 41.5870 12.0690 134° Southeast 554 638 37,000  Level FlightAware
08:19AM 41.5250 12.1550 134° Southeast 555 639 37,000  Level FlightAware
08:20AM 41.4190 12.3010 134° Southeast 557 641 37,000  Level FlightAware
08:20AM 41.3380 12.4130 134° Southeast 558 642 37,000  Level FlightAware
08:21AM 41.2660 12.5140 133° Southeast 558 642 37,000  Level FlightAware
08:22AM 41.1960 12.6100 134° Southeast 557 641 37,000  Level FlightAware
08:22AM 41.1240 12.7100 134° Southeast 556 640 37,000  Level FlightAware
08:23AM 41.0430 12.8200 134° Southeast 555 639 37,000  Level FlightAware
08:24AM 40.9750 12.9120 134° Southeast 555 639 37,000  Level FlightAware
08:24AM 40.9100 13.0240 127° Southeast 554 638 37,000  Level FlightAware
08:25AM 40.8890 13.0870 114° Southeast 550 633 37,000  Level FlightAware
08:26AM 40.8410 13.2920 107° East 547 629 37,000  Level FlightAware
08:26AM 40.8140 13.4090 107° East 546 628 37,000  Level FlightAware
08:27AM 40.7810 13.5530 107° East 545 627 37,000  Level FlightAware
08:28AM 40.7490 13.6890 107° East 542 624 37,000  Level FlightAware
08:29AM 40.7210 13.8050 108° East 542 624 37,000  Level FlightAware
08:29AM 40.6880 13.9450 107° East 541 623 37,000  Level FlightAware
08:30AM 40.6550 14.0830 107° East 539 620 37,000  Level FlightAware
08:31AM 40.6260 14.2010 108° East 540 621 37,000  Level FlightAware
08:31AM 40.5860 14.3520 109° East 541 623 37,000  Level FlightAware
08:32AM 40.5360 14.4630 121° Southeast 545 627 37,000  Level FlightAware
08:33AM 40.4790 14.5670 126° Southeast 544 626 37,000  Level FlightAware
08:33AM 40.4110 14.6890 126° Southeast 545 627 37,000  Level FlightAware
08:34AM 40.3520 14.7940 126° Southeast 544 626 37,000  Level FlightAware
08:35AM 40.2990 14.8890 126° Southeast 545 627 37,000  Level FlightAware
08:36AM 40.2270 15.0170 126° Southeast 545 627 37,000  Level FlightAware
08:36AM 40.1660 15.1260 126° Southeast 544 626 37,000  Level FlightAware
08:37AM 40.0980 15.2460 127° Southeast 544 626 37,000  Level FlightAware
08:38AM 40.0310 15.3640 127° Southeast 544 626 37,000  Level FlightAware
08:38AM 39.9720 15.4690 126° Southeast 544 626 37,000  Level FlightAware
08:39AM 39.9110 15.5750 127° Southeast 543 625 37,000  Level FlightAware
08:40AM 39.8460 15.6890 127° Southeast 543 625 37,000  Level FlightAware
08:41AM 39.7800 15.8040 127° Southeast 541 623 37,000  Level FlightAware
08:41AM 39.7190 15.9090 127° Southeast 542 624 37,000  Level FlightAware
08:42AM 39.6650 16.0170 123° Southeast 542 624 37,000  Level FlightAware
08:43AM 39.6160 16.1450 116° Southeast 543 625 37,000  Level FlightAware
08:43AM 39.5730 16.2680 114° Southeast 541 623 37,000  Level FlightAware
08:44AM 39.5310 16.3860 115° Southeast 539 620 37,000  Level FlightAware
08:45AM 39.4880 16.5040 115° Southeast 539 620 37,000  Level FlightAware
08:45AM 39.4410 16.6310 116° Southeast 539 620 37,000  Level FlightAware
08:46AM 39.3930 16.7590 116° Southeast 540 621 37,000  Level FlightAware
08:47AM 39.3480 16.8800 116° Southeast 540 621 37,000  Level FlightAware
08:47AM 39.3080 16.9880 116° Southeast 540 621 37,000  Level FlightAware
08:48AM 39.2700 17.0910 115° Southeast 538 619 37,000  Level FlightAware
08:49AM 39.2260 17.2090 116° Southeast 536 617 37,000  Level FlightAware
08:49AM 39.1890 17.3100 115° Southeast 536 617 37,000  Level FlightAware
08:50AM 39.1340 17.4560 116° Southeast 536 617 37,000  Level FlightAware
08:51AM 39.0900 17.5730 116° Southeast 537 618 37,000  Level FlightAware
08:52AM 39.0500 17.6790 116° Southeast 540 621 37,000  Level FlightAware
08:52AM 39.0090 17.7850 116° Southeast 540 621 37,000  Level FlightAware
08:53AM 38.9560 17.9250 116° Southeast 538 619 37,000  Level FlightAware
08:54AM 38.9050 18.0570 116° Southeast 540 621 37,000  Level FlightAware
08:54AM 38.8600 18.1730 116° Southeast 540 621 37,000  Level FlightAware
08:55AM 38.8220 18.2730 116° Southeast 541 623 37,000  Level FlightAware
08:56AM 38.7630 18.4240 117° Southeast 538 619 37,000  Level FlightAware
08:57AM 38.7190 18.5360 117° Southeast 537 618 37,000  Level FlightAware
08:57AM 38.6740 18.6530 116° Southeast 536 617 37,000  Level FlightAware
08:58AM 38.6250 18.7760 117° Southeast 535 616 37,000  Level FlightAware
08:59AM 38.5890 18.8680 117° Southeast 534 615 37,000  Level FlightAware
08:59AM 38.5470 18.9820 115° Southeast 536 617 37,000  Level FlightAware
09:00AM 38.5050 19.1060 113° Southeast 536 617 37,000  Level FlightAware
09:01AM 38.4410 19.3330 110° East 536 617 37,000  Level FlightAware
09:02AM 38.4050 19.4540 111° Southeast 536 617 37,000  Level FlightAware
09:03AM 38.3670 19.5770 111° Southeast 535 616 37,000  Level FlightAware
09:03AM 38.3250 19.7170 111° Southeast 534 615 37,000  Level FlightAware
09:04AM 38.2880 19.8370 111° Southeast 534 615 37,000  Level FlightAware
09:05AM 38.2520 19.9530 112° Southeast 534 615 37,000  Level FlightAware
09:05AM 38.2080 20.0970 111° Southeast 535 616 37,000  Level FlightAware
09:06AM 38.1610 20.2510 111° Southeast 536 617 37,000  Level FlightAware
09:07AM 38.1280 20.3540 112° Southeast 536 617 37,000  Level FlightAware
09:08AM 38.0870 20.4880 111° Southeast 537 618 37,000  Level FlightAware
09:08AM 38.0460 20.6180 112° Southeast 538 619 37,000  Level FlightAware
09:09AM 38.0130 20.7210 112° Southeast 539 620 37,000  Level FlightAware
09:10AM 37.9760 20.8370 112° Southeast 536 617 37,000  Level FlightAware
09:10AM 37.9390 20.9540 112° Southeast 540 621 37,000  Level FlightAware
09:11AM 37.8920 21.1000 112° Southeast 538 619 37,000  Level FlightAware
09:12AM 37.8380 21.2660 112° Southeast 536 617 37,000  Level FlightAware
09:13AM 37.8010 21.3790 112° Southeast 536 617 37,000  Level FlightAware
09:13AM 37.7600 21.5060 112° Southeast 538 619 37,000  Level FlightAware
09:14AM 37.7180 21.6360 112° Southeast 539 620 37,000  Level FlightAware
09:15AM 37.6630 21.8030 113° Southeast 539 620 37,000  Level FlightAware
09:16AM 37.6270 21.9130 112° Southeast 540 621 37,000  Level FlightAware
09:16AM 37.5840 22.0420 113° Southeast 539 620 37,000  Level FlightAware
09:17AM 37.5440 22.1640 112° Southeast 540 621 37,000  Level FlightAware
09:18AM 37.5070 22.2750 113° Southeast 540 621 37,000  Level FlightAware
09:18AM 37.4700 22.3840 113° Southeast 539 620 37,000  Level FlightAware
09:19AM 37.4220 22.5280 113° Southeast 539 620 37,000  Level FlightAware
09:20AM 37.3870 22.6310 113° Southeast 537 618 37,000  Level FlightAware
09:21AM 37.3400 22.7700 113° Southeast 533 613 37,000  Level FlightAware
09:21AM 37.2970 22.8940 114° Southeast 533 613 37,000  Level FlightAware
09:22AM 37.2600 23.0010 113° Southeast 535 616 37,000  Level FlightAware
09:23AM 37.2180 23.1220 114° Southeast 537 618 37,000  Level FlightAware
09:23AM 37.1790 23.2360 113° Southeast 539 620 37,000  Level FlightAware
09:24AM 37.1350 23.3630 113° Southeast 541 623 37,000  Level FlightAware
09:25AM 37.0910 23.4910 113° Southeast 540 621 37,000  Level FlightAware
09:25AM 37.0520 23.6030 114° Southeast 539 620 37,000  Level FlightAware
09:26AM 37.0080 23.7280 114° Southeast 539 620 37,000  Level FlightAware
09:27AM 36.9630 23.8560 114° Southeast 539 620 37,000  Level FlightAware
09:28AM 36.9250 23.9660 113° Southeast 540 621 37,000  Level FlightAware
09:28AM 36.8820 24.0860 114° Southeast 539 620 37,000  Level FlightAware
09:29AM 36.8430 24.1940 114° Southeast 539 620 37,000  Level FlightAware
09:30AM 36.8240 24.2470 114° Southeast 539 620 37,000  Level FlightAware
09:30AM 36.7550 24.4390 114° Southeast 541 623 37,000  Level FlightAware
09:31AM 36.7100 24.5650 114° Southeast 542 624 37,000  Level FlightAware
09:32AM 36.6690 24.6810 114° Southeast 544 626 37,000  Level FlightAware
09:33AM 36.6230 24.8090 114° Southeast 544 626 37,000  Level FlightAware
09:33AM 36.5810 24.9250 114° Southeast 543 625 37,000  Level FlightAware
09:34AM 36.5350 25.0510 114° Southeast 542 624 37,000  Level FlightAware
09:35AM 36.4920 25.1700 114° Southeast 542 624 37,000  Level FlightAware
09:35AM 36.4480 25.2900 114° Southeast 543 625 37,000  Level FlightAware
09:36AM 36.4050 25.4080 114° Southeast 543 625 37,000  Level FlightAware
09:37AM 36.3650 25.5160 115° Southeast 544 626 37,000  Level FlightAware
09:37AM 36.3190 25.6400 115° Southeast 544 626 37,000  Level FlightAware
09:38AM 36.2720 25.7650 115° Southeast 544 626 37,000  Level FlightAware
09:39AM 36.2340 25.8660 115° Southeast 543 625 37,000  Level FlightAware
09:40AM 36.1830 26.0040 115° Southeast 545 627 37,000  Level FlightAware
09:40AM 36.1390 26.1200 115° Southeast 546 628 37,000  Level FlightAware
09:41AM 36.0960 26.2340 115° Southeast 548 631 37,000  Level FlightAware
09:42AM 36.0480 26.3590 115° Southeast 547 629 37,000  Level FlightAware
09:42AM 36.0030 26.4770 115° Southeast 548 631 37,000  Level FlightAware
09:43AM 35.9590 26.5920 115° Southeast 551 634 37,000  Level FlightAware
09:44AM 35.9140 26.7110 115° Southeast 555 639 37,000  Level FlightAware
09:45AM 35.8630 26.8430 115° Southeast 554 638 37,000  Level FlightAware
09:45AM 35.8070 26.9890 115° Southeast 558 642 37,000  Level FlightAware
09:46AM 35.7740 27.0750 115° Southeast 559 643 37,000  Level FlightAware
09:47AM 35.7290 27.1900 116° Southeast 562 647 37,000  Level FlightAware
09:47AM 35.6690 27.3460 115° Southeast 37,000  Level FlightAware
09:48AM 35.6220 27.4660 116° Southeast 562 647 37,000  Level FlightAware
09:49AM 35.5710 27.5980 115° Southeast 563 648 37,000  Level FlightAware
09:49AM 35.5360 27.6900 115° Southeast 563 648 37,000  Level FlightAware
09:50AM 35.4940 27.8000 115° Southeast 563 648 37,000  Level FlightAware
09:51AM 35.3920 28.0500 117° Southeast 565 650 37,000  Level FlightAware
09:52AM 35.3460 28.1640 116° Southeast 566 651 37,000  Level FlightAware
09:53AM 35.3000 28.2810 116° Southeast 565 650 37,000  Level FlightAware
09:54AM 35.2480 28.4100 116° Southeast 563 648 37,000  Level FlightAware
09:54AM 35.2000 28.5290 116° Southeast 563 648 37,000  Level FlightAware
09:55AM 35.1500 28.6540 116° Southeast 563 648 37,000  Level FlightAware
09:56AM 35.0940 28.7910 117° Southeast 560 644 37,000  Level FlightAware
09:57AM 35.0370 28.9300 117° Southeast 568 654 37,000  Level FlightAware
09:57AM 34.9910 29.0450 116° Southeast 570 656 37,000  Level FlightAware
09:58AM 34.9360 29.1780 117° Southeast 569 655 37,000  Level FlightAware
09:59AM 34.8890 29.2930 116° Southeast 569 655 37,000  Level FlightAware
09:59AM 34.8440 29.4020 117° Southeast 37,000  Level FlightAware
10:00AM 34.7890 29.5340 117° Southeast 572 658 37,000  Level FlightAware
10:01AM 34.7290 29.6790 117° Southeast 573 659 37,000  Level FlightAware
10:02AM 34.6820 29.7930 117° Southeast 572 658 37,000  Level FlightAware
10:02AM 34.6310 29.9130 117° Southeast 572 658 37,000  Level FlightAware
10:03AM 34.5870 30.0190 117° Southeast 571 657 37,000  Level FlightAware
10:04AM 34.5380 30.1350 117° Southeast 571 657 37,000  Level FlightAware
10:04AM 34.4800 30.2470 122° Southeast 561 646 37,000  Level FlightAware
10:05AM 34.4190 30.3740 120° Southeast 558 642 37,000  Level FlightAware
10:06AM 34.3720 30.4710 120° Southeast 559 643 37,000  Level FlightAware
10:06AM 34.3190 30.5800 120° Southeast 559 643 37,000  Level FlightAware
10:07AM 34.2570 30.7080 120° Southeast 559 643 37,000  Level FlightAware
10:08AM 34.2110 30.8030 120° Southeast 557 641 37,000  Level FlightAware
10:09AM 34.1350 30.9610 120° Southeast 555 639 37,000  Level FlightAware
10:09AM 34.0820 31.0700 120° Southeast 553 636 37,000  Level FlightAware
10:10AM 33.9910 31.2560 121° Southeast 550 633 37,000  Level FlightAware
10:11AM 33.9320 31.3780 120° Southeast 549 632 37,000  Level FlightAware
10:12AM 33.8930 31.4570 121° Southeast 549 632 37,000  Level FlightAware
10:13AM 33.8280 31.5890 121° Southeast 549 632 37,000  Level FlightAware
10:13AM 33.7670 31.7130 121° Southeast 548 631 37,000  Level FlightAware
10:14AM 33.7140 31.8190 121° Southeast 549 632 37,000  Level FlightAware
10:15AM 33.6670 31.9150 120° Southeast 551 634 37,000  Level FlightAware
10:15AM 33.6020 32.0440 121° Southeast 551 634 37,000  Level FlightAware
10:16AM 33.5540 32.1390 121° Southeast 554 638 37,000  Level FlightAware
10:17AM 33.4990 32.2480 121° Southeast 554 638 37,000  Level FlightAware
10:18AM 33.4350 32.3730 122° Southeast 553 636 37,000 -240 Level FlightAware
10:18AM 33.3610 32.5150 122° Southeast 540 621 36,600 -900 Descending FlightAware
10:19AM 33.3010 32.6310 122° Southeast 546 628 35,500 -1,500 Descending FlightAware
10:20AM 33.2300 32.7700 121° Southeast 535 616 34,100 -1,140 Descending FlightAware
10:21AM 33.1890 32.8550 120° Southeast 532 612 33,700 -2,280 Descending FlightAware
10:21AM 33.1370 32.9560 122° Southeast 517 595 31,200 -3,240 Descending FlightAware
10:22AM 33.0750 33.0810 121° Southeast 510 587 29,300 -2,400 Descending FlightAware
10:23AM 33.0250 33.1780 122° Southeast 497 572 27,700 -2,220 Descending FlightAware
10:24AM 32.9750 33.2760 121° Southeast 482 555 26,200 -2,160 Descending FlightAware
10:24AM 32.9240 33.3720 122° Southeast 463 533 24,600 -2,040 Descending FlightAware
10:25AM 32.9020 33.4150 121° Southeast 454 522 24,000 -1,980 Descending FlightAware
10:25AM 32.8580 33.5000 122° Southeast 439 505 22,600 -2,100 Descending FlightAware
10:26AM 32.8040 33.6020 122° Southeast 421 484 20,900 -1,980 Descending FlightAware
10:27AM 32.7580 33.6890 122° Southeast 406 467 19,500 -1,800 Descending FlightAware
10:28AM 32.7170 33.7600 124° Southeast 395 455 18,400 -1,680 Descending FlightAware
10:28AM 32.6730 33.8250 129° Southeast 379 436 17,400 -1,560 Descending FlightAware
10:29AM 32.6210 33.9030 128° Southeast 382 440 16,200 -1,500 Descending FlightAware
10:30AM 32.5790 33.9670 128° Southeast 384 442 15,200 -1,560 Descending FlightAware
10:30AM 32.5390 34.0310 127° Southeast 378 435 14,200 -1,500 Descending FlightAware
10:31AM 32.4960 34.1000 126° Southeast 373 429 13,200 -1,500 Descending FlightAware
10:32AM 32.4460 34.1760 128° Southeast 364 419 12,000 -1,500 Descending FlightAware
10:33AM 32.4030 34.2420 128° Southeast 349 402 11,000 -1,260 Descending FlightAware
10:33AM 32.3630 34.2990 130° Southeast 334 384 10,300 -1,200 Descending FlightAware
10:34AM 32.3420 34.3310 128° Southeast 327 376 9,800 -600 Descending FlightAware
10:34AM 32.3200 34.3640 128° Southeast 327 376 9,800  Level FlightAware
10:35AM 32.2910 34.4080 128° Southeast 327 376 9,800  Level FlightAware
10:35AM 32.2720 34.4360 129° Southeast 327 376 9,800  Level FlightAware
10:35AM 32.2630 34.4510 125° Southeast 327 376 9,800  Level FlightAware
10:38AM 32.0588 34.7614 115° Southeast  Level FlightAware Approximate
10:39AM 32.0000 34.8667 125° Southeast  Level FlightAware Approximate
10:40AM 32.0095 34.8769 125° Southeast  Level Estimated
10:41AM 32.0095 34.8769 125° Southeast  Level Estimated
10:42AM 32.0095 34.8769 125° Southeast  Level Estimated
10:43AM 32.0095 34.8769 125° Southeast  Level Estimated
10:44AM 32.0095 34.8769 125° Southeast  Level Estimated
10:45AM 32.0095 34.8769 125° Southeast  Level Estimated
10:46AM 32.0095 34.8769 125° Southeast  Level Estimated
10:47AM 32.0095 34.8769 125° Southeast  Level Estimated